createdAt,value
2018-07-28T00:02:05.433Z,7.60
2018-07-28T00:04:12.797Z,6.63
2018-07-28T00:06:19.285Z,7.47
2018-07-28T00:08:27.552Z,7.07
2018-07-28T00:10:37.799Z,6.17
2018-07-28T00:12:44.695Z,6.90
2018-07-28T00:14:51.305Z,6.97
2018-07-28T00:17:07.629Z,6.87
2018-07-28T00:19:24.395Z,6.70
2018-07-28T00:24:31.453Z,7.47
2018-07-28T00:26:43.014Z,7.07
2018-07-28T00:28:50.546Z,6.70
2018-07-28T00:30:57.354Z,6.90
2018-07-28T00:33:05.654Z,6.83
2018-07-28T00:35:12.605Z,7.07
2018-07-28T00:37:18.455Z,7.03
2018-07-28T00:39:27.646Z,6.40
2018-07-28T00:41:35.237Z,6.83
2018-07-28T00:43:39.768Z,7.70
2018-07-28T00:45:47.844Z,6.40
2018-07-28T00:48:06.550Z,6.60
2018-07-28T00:50:13.443Z,6.87
2018-07-28T00:52:24.615Z,6.77
2018-07-28T00:54:34.488Z,6.97
2018-07-28T00:56:48.733Z,7.93
2018-07-28T00:58:53.504Z,7.50
2018-07-28T01:01:03.774Z,7.03
2018-07-28T01:03:11.497Z,7.67
2018-07-28T01:05:18.394Z,7.70
2018-07-28T01:07:25.346Z,7.90
2018-07-28T01:09:48.264Z,6.63
2018-07-28T01:12:00.757Z,7.50
2018-07-28T01:14:06.644Z,7.00
2018-07-28T01:16:10.931Z,7.37
2018-07-28T01:18:15.211Z,7.27
2018-07-28T01:20:19.872Z,6.93
2018-07-28T01:22:23.999Z,6.90
2018-07-28T01:24:28.077Z,7.17
2018-07-28T01:26:33.565Z,7.17
2018-07-28T01:28:37.166Z,7.73
2018-07-28T01:30:41.319Z,7.70
2018-07-28T01:32:50.873Z,7.10
2018-07-28T01:34:56.725Z,7.50
2018-07-28T01:37:00.961Z,7.20
2018-07-28T01:39:08.963Z,6.93
2018-07-28T01:41:14.094Z,7.47
2018-07-28T01:43:18.629Z,7.57
2018-07-28T01:45:25.529Z,7.67
2018-07-28T01:47:29.854Z,7.43
2018-07-28T01:49:35.045Z,6.90
2018-07-28T01:51:44.369Z,7.30
2018-07-28T01:53:49.456Z,7.60
2018-07-28T01:55:54.512Z,7.13
2018-07-28T01:57:59.828Z,6.93
2018-07-28T02:00:06.713Z,7.00
2018-07-28T02:02:10.819Z,7.30
2018-07-28T02:04:16.267Z,7.00
2018-07-28T02:06:20.402Z,7.50
2018-07-28T02:08:24.440Z,7.83
2018-07-28T02:10:28.568Z,7.17
2018-07-28T02:12:33.119Z,7.40
2018-07-28T02:14:37.190Z,7.57
2018-07-28T02:16:41.659Z,7.57
2018-07-28T02:18:46.161Z,7.57
2018-07-28T02:20:51.019Z,7.73
2018-07-28T02:22:55.473Z,7.53
2018-07-28T02:24:59.559Z,7.70
2018-07-28T02:27:03.711Z,7.33
2018-07-28T02:29:11.024Z,7.30
2018-07-28T02:31:15.506Z,7.10
2018-07-28T02:33:19.792Z,7.47
2018-07-28T02:35:24.774Z,8.03
2018-07-28T02:37:28.923Z,7.57
2018-07-28T02:39:33.371Z,8.47
2018-07-28T02:41:41.978Z,7.83
2018-07-28T02:43:45.964Z,8.00
2018-07-28T02:45:50.048Z,8.10
2018-07-28T02:47:54.391Z,7.83
2018-07-28T02:49:59.449Z,7.57
2018-07-28T02:52:03.538Z,7.60
2018-07-28T02:54:08.713Z,7.03
2018-07-28T02:56:13.825Z,7.93
2018-07-28T02:58:18.563Z,8.03
2018-07-28T03:00:22.640Z,8.30
2018-07-28T03:02:27.515Z,7.97
2018-07-28T03:04:34.619Z,7.87
2018-07-28T03:06:38.653Z,7.60
2018-07-28T03:08:42.939Z,7.97
2018-07-28T03:10:47.012Z,7.93
2018-07-28T03:12:51.356Z,7.80
2018-07-28T03:14:55.294Z,7.83
2018-07-28T03:16:59.350Z,7.60
2018-07-28T03:19:07.324Z,7.90
2018-07-28T03:21:14.403Z,7.43
2018-07-28T03:23:18.380Z,7.63
2018-07-28T03:25:28.168Z,8.00
2018-07-28T03:27:32.804Z,8.00
2018-07-28T03:29:37.048Z,7.30
2018-07-28T03:31:44.086Z,7.00
2018-07-28T03:33:50.596Z,7.67
2018-07-28T03:35:55.043Z,7.30
2018-07-28T03:37:59.849Z,7.23
2018-07-28T03:40:04.787Z,7.80
2018-07-28T03:42:09.599Z,6.97
2018-07-28T03:44:13.743Z,7.17
2018-07-28T03:46:17.805Z,7.90
2018-07-28T03:48:22.259Z,7.57
2018-07-28T03:50:26.810Z,7.93
2018-07-28T03:52:31.274Z,8.40
2018-07-28T03:54:35.694Z,7.27
2018-07-28T03:56:39.921Z,7.50
2018-07-28T03:58:43.905Z,7.50
2018-07-28T04:00:48.814Z,8.10
2018-07-28T04:02:54.009Z,7.67
2018-07-28T04:05:02.489Z,7.00
2018-07-28T04:07:09.260Z,6.97
2018-07-28T04:09:14.238Z,7.37
2018-07-28T04:11:18.656Z,6.93
2018-07-28T04:13:28.422Z,7.43
2018-07-28T04:15:34.327Z,7.33
2018-07-28T04:17:44.751Z,7.17
2018-07-28T04:19:50.625Z,7.10
2018-07-28T04:21:56.308Z,7.67
2018-07-28T04:24:01.952Z,7.20
2018-07-28T04:26:06.057Z,7.20
2018-07-28T04:28:10.206Z,7.60
2018-07-28T04:30:15.848Z,7.03
2018-07-28T04:32:19.909Z,6.97
2018-07-28T04:34:24.593Z,7.23
2018-07-28T04:36:30.201Z,7.67
2018-07-28T04:38:34.301Z,7.40
2018-07-28T04:40:38.342Z,7.17
2018-07-28T04:42:43.637Z,6.90
2018-07-28T04:44:47.632Z,7.37
2018-07-28T04:46:51.643Z,7.13
2018-07-28T04:48:55.976Z,6.80
2018-07-28T04:51:00.871Z,7.30
2018-07-28T04:53:04.983Z,7.40
2018-07-28T04:55:11.511Z,7.07
2018-07-28T04:57:15.739Z,6.97
2018-07-28T04:59:19.867Z,7.13
2018-07-28T05:01:23.874Z,7.10
2018-07-28T05:03:29.453Z,6.90
2018-07-28T05:05:33.675Z,7.17
2018-07-28T05:07:39.841Z,6.97
2018-07-28T05:09:44.682Z,7.20
2018-07-28T05:11:48.738Z,8.37
2018-07-28T05:13:54.073Z,9.60
2018-07-28T05:15:58.175Z,8.57
2018-07-28T05:18:02.306Z,8.80
2018-07-28T05:20:08.057Z,7.80
2018-07-28T05:22:12.106Z,8.13
2018-07-28T05:24:16.172Z,8.07
2018-07-28T05:26:20.249Z,7.77
2018-07-28T05:28:24.708Z,8.08
2018-07-28T05:30:28.757Z,7.72
2018-07-28T05:32:32.804Z,7.85
2018-07-28T05:34:37.076Z,7.90
2018-07-28T05:36:41.120Z,7.35
2018-07-28T05:38:46.023Z,7.40
2018-07-28T05:40:53.480Z,7.85
2018-07-28T05:42:57.744Z,7.25
2018-07-28T05:45:03.165Z,7.42
2018-07-28T05:47:07.398Z,7.83
2018-07-28T05:49:11.399Z,8.28
2018-07-28T05:51:15.436Z,8.23
2018-07-28T05:53:20.920Z,9.73
2018-07-28T05:55:25.279Z,9.03
2018-07-28T05:57:30.252Z,9.48
2018-07-28T05:59:34.612Z,8.23
2018-07-28T06:01:38.687Z,8.85
2018-07-28T06:03:43.028Z,8.65
2018-07-28T06:05:47.308Z,8.10
2018-07-28T06:07:51.974Z,8.30
2018-07-28T06:09:56.073Z,8.05
2018-07-28T06:12:03.684Z,8.10
2018-07-28T06:14:07.819Z,8.20
2018-07-28T06:16:11.962Z,8.25
2018-07-28T06:18:16.405Z,7.85
2018-07-28T06:20:20.585Z,7.40
2018-07-28T06:22:25.371Z,7.67
2018-07-28T06:24:29.967Z,6.90
2018-07-28T06:26:34.067Z,6.97
2018-07-28T06:28:38.061Z,7.70
2018-07-28T06:30:42.512Z,6.78
2018-07-28T06:32:47.380Z,7.53
2018-07-28T06:34:51.486Z,6.95
2018-07-28T06:36:55.701Z,7.40
2018-07-28T06:39:00.769Z,6.92
2018-07-28T06:41:04.857Z,7.72
2018-07-28T06:43:09.359Z,7.10
2018-07-28T06:45:14.699Z,7.37
2018-07-28T06:47:19.802Z,7.35
2018-07-28T06:49:25.433Z,7.40
2018-07-28T06:51:31.254Z,7.90
2018-07-28T06:53:35.522Z,7.90
2018-07-28T06:55:40.536Z,7.35
2018-07-28T06:57:45.411Z,7.53
2018-07-28T06:59:49.548Z,7.95
2018-07-28T07:01:53.987Z,7.80
2018-07-28T07:03:58.142Z,7.45
2018-07-28T07:06:03.185Z,7.83
2018-07-28T07:08:08.175Z,7.97
2018-07-28T07:10:13.352Z,8.78
2018-07-28T07:12:17.363Z,7.90
2018-07-28T07:14:22.297Z,7.97
2018-07-28T07:16:29.306Z,7.33
2018-07-28T07:18:34.817Z,7.60
2018-07-28T07:20:39.261Z,8.48
2018-07-28T07:22:43.380Z,7.80
2018-07-28T07:24:47.754Z,7.95
2018-07-28T07:26:52.357Z,7.85
2018-07-28T07:28:57.046Z,8.08
2018-07-28T07:31:01.300Z,7.95
2018-07-28T07:33:06.349Z,8.13
2018-07-28T07:35:10.340Z,7.70
2018-07-28T07:37:16.356Z,8.48
2018-07-28T07:39:21.725Z,7.95
2018-07-28T07:41:25.779Z,7.67
2018-07-28T07:43:30.460Z,7.47
2018-07-28T07:45:35.120Z,7.83
2018-07-28T07:47:39.348Z,8.40
2018-07-28T07:49:43.771Z,7.72
2018-07-28T07:51:49.771Z,7.83
2018-07-28T07:53:54.260Z,8.00
2018-07-28T07:56:02.044Z,8.03
2018-07-28T07:58:06.179Z,8.03
2018-07-28T08:00:10.705Z,7.90
2018-07-28T08:02:15.562Z,8.50
2018-07-28T08:04:21.859Z,7.83
2018-07-28T08:06:26.068Z,7.50
2018-07-28T08:08:32.661Z,7.97
2018-07-28T08:10:40.085Z,7.72
2018-07-28T08:12:45.874Z,8.40
2018-07-28T08:14:51.185Z,8.13
2018-07-28T08:16:56.492Z,7.95
2018-07-28T08:19:01.521Z,7.78
2018-07-28T08:21:05.660Z,7.62
2018-07-28T08:23:09.656Z,7.45
2018-07-28T08:25:14.767Z,7.65
2018-07-28T08:27:18.856Z,7.17
2018-07-28T08:29:25.976Z,7.72
2018-07-28T08:31:30.088Z,6.78
2018-07-28T08:33:35.707Z,7.33
2018-07-28T08:35:40.291Z,6.92
2018-07-28T08:37:44.382Z,6.70
2018-07-28T08:39:48.551Z,6.92
2018-07-28T08:41:53.385Z,7.50
2018-07-28T08:43:58.952Z,6.45
2018-07-28T08:46:05.078Z,7.08
2018-07-28T08:48:10.355Z,7.22
2018-07-28T08:50:15.565Z,7.58
2018-07-28T08:52:20.800Z,7.30
2018-07-28T08:54:26.907Z,6.78
2018-07-28T08:56:32.741Z,7.50
2018-07-28T08:58:38.365Z,7.22
2018-07-28T09:00:42.942Z,7.42
2018-07-28T09:02:48.678Z,7.42
2018-07-28T09:04:53.639Z,8.45
2018-07-28T09:06:58.394Z,7.42
2018-07-28T09:09:03.578Z,7.47
2018-07-28T09:11:08.301Z,7.47
2018-07-28T09:13:15.533Z,7.58
2018-07-28T09:15:25.602Z,7.40
2018-07-28T09:17:29.756Z,7.33
2018-07-28T09:19:34.468Z,8.08
2018-07-28T09:21:39.714Z,7.40
2018-07-28T09:23:46.313Z,7.78
2018-07-28T09:25:51.363Z,7.72
2018-07-28T09:27:56.543Z,8.08
2018-07-28T09:30:00.900Z,7.83
2018-07-28T09:32:07.478Z,7.90
2018-07-28T09:34:12.887Z,7.45
2018-07-28T09:36:17.197Z,7.80
2018-07-28T09:38:21.443Z,7.97
2018-07-28T09:40:25.645Z,8.28
2018-07-28T09:42:30.680Z,8.80
2018-07-28T09:44:39.626Z,8.98
2018-07-28T09:46:43.774Z,8.60
2018-07-28T09:48:49.177Z,7.97
2018-07-28T09:50:55.379Z,7.92
2018-07-28T09:52:59.526Z,8.60
2018-07-28T09:55:04.008Z,8.68
2018-07-28T09:57:10.140Z,8.43
2018-07-28T09:59:14.370Z,8.33
2018-07-28T10:01:23.653Z,7.78
2018-07-28T10:03:30.798Z,8.25
2018-07-28T10:05:34.953Z,7.72
2018-07-28T10:07:39.100Z,7.33
2018-07-28T10:09:45.102Z,6.90
2018-07-28T10:11:49.269Z,7.30
2018-07-28T10:13:54.393Z,7.00
2018-07-28T10:16:01.367Z,6.28
2018-07-28T10:18:06.080Z,4.87
2018-07-28T10:20:10.494Z,4.58
2018-07-28T10:22:21.393Z,5.92
2018-07-28T10:24:27.281Z,4.87
2018-07-28T10:26:32.879Z,4.92
2018-07-28T10:28:38.670Z,5.28
2018-07-28T10:30:43.800Z,5.87
2018-07-28T10:32:48.010Z,4.90
2018-07-28T10:34:57.635Z,5.22
2018-07-28T10:37:03.215Z,5.53
2018-07-28T10:39:12.986Z,5.05
2018-07-28T10:41:20.826Z,5.25
2018-07-28T10:43:25.011Z,5.55
2018-07-28T10:45:32.432Z,6.15
2018-07-28T10:47:38.299Z,5.80
2018-07-28T10:49:44.354Z,5.65
2018-07-28T10:51:51.257Z,5.00
2018-07-28T10:53:56.993Z,5.03
2018-07-28T10:56:03.072Z,5.08
2018-07-28T10:58:19.639Z,5.10
2018-07-28T11:00:31.999Z,5.62
2018-07-28T11:02:41.435Z,5.75
2018-07-28T11:04:45.787Z,5.37
2018-07-28T11:06:56.507Z,5.62
2018-07-28T11:09:06.327Z,5.10
2018-07-28T11:11:11.483Z,5.17
2018-07-28T11:13:19.900Z,4.95
2018-07-28T11:15:25.270Z,4.42
2018-07-28T11:17:30.739Z,5.00
2018-07-28T11:19:36.337Z,4.28
2018-07-28T11:21:44.928Z,4.65
2018-07-28T11:23:55.981Z,4.60
2018-07-28T11:26:09.839Z,4.60
2018-07-28T11:28:16.551Z,4.60
2018-07-28T11:30:20.665Z,4.37
2018-07-28T11:32:36.007Z,4.35
2018-07-28T11:34:51.280Z,4.30
2018-07-28T11:37:06.870Z,4.28
2018-07-28T11:39:21.774Z,4.35
2018-07-28T11:41:37.215Z,3.85
2018-07-28T11:43:54.784Z,4.47
2018-07-28T11:45:58.988Z,4.50
2018-07-28T11:48:04.891Z,4.40
2018-07-28T11:50:09.467Z,4.33
2018-07-28T11:52:22.628Z,4.80
2018-07-28T11:54:42.705Z,4.03
2018-07-28T11:56:46.770Z,4.92
2018-07-28T11:58:51.891Z,4.80
2018-07-28T12:00:57.063Z,4.70
2018-07-28T12:03:01.677Z,4.72
2018-07-28T12:05:08.066Z,5.15
2018-07-28T12:07:12.213Z,4.78
2018-07-28T12:09:16.933Z,5.12
2018-07-28T12:11:26.139Z,5.78
2018-07-28T12:13:30.560Z,5.05
2018-07-28T12:15:40.827Z,5.37
2018-07-28T12:17:47.922Z,5.60
2018-07-28T12:20:07.978Z,5.20
2018-07-28T12:22:12.919Z,5.33
2018-07-28T12:24:18.742Z,5.60
2018-07-28T12:26:23.262Z,5.78
2018-07-28T12:28:28.442Z,5.12
2018-07-28T12:30:34.372Z,5.03
2018-07-28T12:32:42.893Z,4.53
2018-07-28T12:34:53.708Z,3.87
2018-07-28T12:37:00.023Z,3.67
2018-07-28T12:39:04.436Z,4.60
2018-07-28T12:41:12.282Z,3.98
2018-07-28T12:43:17.314Z,3.45
2018-07-28T12:45:22.310Z,3.75
2018-07-28T12:47:26.957Z,3.47
2018-07-28T12:49:31.862Z,4.10
2018-07-28T12:51:37.908Z,4.17
2018-07-28T12:53:42.416Z,4.17
2018-07-28T12:55:49.946Z,3.70
2018-07-28T12:57:55.879Z,4.00
2018-07-28T13:00:03.013Z,4.10
2018-07-28T13:02:08.443Z,3.72
2018-07-28T13:04:13.903Z,3.83
2018-07-28T13:06:19.424Z,3.80
2018-07-28T13:08:27.289Z,4.55
2018-07-28T13:10:32.290Z,4.22
2018-07-28T13:12:38.329Z,3.85
2018-07-28T13:14:43.379Z,3.95
2018-07-28T13:16:47.724Z,4.00
2018-07-28T13:18:55.466Z,4.17
2018-07-28T13:21:05.824Z,4.22
2018-07-28T13:23:13.300Z,4.08
2018-07-28T13:25:17.983Z,4.35
2018-07-28T13:27:22.429Z,4.17
2018-07-28T13:29:28.490Z,4.22
2018-07-28T13:31:34.579Z,4.20
2018-07-28T13:33:40.577Z,4.58
2018-07-28T13:35:53.270Z,4.78
2018-07-28T13:37:59.002Z,4.50
2018-07-28T13:40:04.315Z,5.00
2018-07-28T13:42:08.581Z,6.25
2018-07-28T13:44:26.145Z,6.42
2018-07-28T13:46:34.613Z,5.62
2018-07-28T13:48:44.357Z,7.05
2018-07-28T13:50:52.124Z,7.80
2018-07-28T13:55:25.433Z,8.07
2018-07-28T13:57:32.711Z,6.67
2018-07-28T13:59:39.034Z,5.20
2018-07-28T14:01:45.454Z,4.80
2018-07-28T14:03:51.046Z,5.93
2018-07-28T14:05:55.280Z,6.20
2018-07-28T14:07:59.917Z,6.13
2018-07-28T14:10:04.546Z,6.20
2018-07-28T14:12:08.704Z,6.77
2018-07-28T14:14:14.113Z,6.67
2018-07-28T14:16:25.084Z,7.30
2018-07-28T14:20:45.114Z,7.00
2018-07-28T14:22:49.575Z,7.30
2018-07-28T14:24:54.510Z,7.45
2018-07-28T14:27:00.345Z,7.17
2018-07-28T14:29:04.726Z,7.00
2018-07-28T14:31:09.293Z,6.10
2018-07-28T14:33:14.003Z,6.47
2018-07-28T14:35:21.185Z,6.72
2018-07-28T14:37:28.372Z,6.60
2018-07-28T14:39:36.908Z,6.75
2018-07-28T14:41:41.387Z,7.00
2018-07-28T14:43:45.777Z,6.75
2018-07-28T14:45:52.632Z,7.20
2018-07-28T14:47:57.245Z,6.72
2018-07-28T14:50:02.967Z,6.87
2018-07-28T14:52:07.017Z,6.37
2018-07-28T14:54:11.458Z,7.35
2018-07-28T14:56:15.626Z,6.87
2018-07-28T14:58:20.128Z,6.75
2018-07-28T15:00:25.116Z,7.10
2018-07-28T15:02:31.046Z,6.95
2018-07-28T15:04:37.524Z,8.50
2018-07-28T15:07:03.765Z,7.37
2018-07-28T15:09:20.338Z,7.15
2018-07-28T15:11:28.431Z,7.75
2018-07-28T15:13:35.760Z,7.55
2018-07-28T15:15:44.035Z,7.97
2018-07-28T15:17:49.655Z,8.98
2018-07-28T15:19:54.384Z,8.43
2018-07-28T15:21:59.438Z,8.53
2018-07-28T15:24:04.308Z,8.03
2018-07-28T15:26:10.196Z,7.78
2018-07-28T15:28:15.138Z,8.58
2018-07-28T15:30:19.311Z,7.85
2018-07-28T15:32:24.034Z,8.55
2018-07-28T15:34:29.222Z,7.92
2018-07-28T15:36:35.159Z,7.55
2018-07-28T15:38:41.209Z,7.70
2018-07-28T15:40:45.984Z,7.45
2018-07-28T15:42:51.249Z,7.80
2018-07-28T15:44:56.576Z,8.08
2018-07-28T15:47:01.332Z,7.15
2018-07-28T15:49:07.705Z,6.55
2018-07-28T15:51:12.679Z,6.50
2018-07-28T15:53:19.502Z,7.00
2018-07-28T15:55:29.711Z,6.83
2018-07-28T15:57:38.238Z,5.80
2018-07-28T15:59:44.387Z,6.33
2018-07-28T16:01:54.972Z,6.35
2018-07-28T16:04:00.028Z,5.95
2018-07-28T16:06:05.316Z,6.35
2018-07-28T16:08:10.144Z,6.45
2018-07-28T16:12:31.306Z,6.50
2018-07-28T16:14:36.929Z,6.00
2018-07-28T16:16:41.736Z,5.75
2018-07-28T16:18:48.302Z,6.05
2018-07-28T16:20:59.307Z,6.30
2018-07-28T16:23:08.643Z,5.72
2018-07-28T16:25:15.410Z,6.35
2018-07-28T16:27:21.221Z,6.85
2018-07-28T16:29:26.483Z,6.25
2018-07-28T16:31:31.244Z,5.42
2018-07-28T16:33:38.761Z,6.50
2018-07-28T16:35:44.108Z,5.95
2018-07-28T16:37:48.782Z,6.03
2018-07-28T16:39:54.742Z,6.50
2018-07-28T16:41:59.229Z,6.20
2018-07-28T16:44:04.709Z,6.42
2018-07-28T16:46:10.056Z,6.90
2018-07-28T16:48:15.401Z,6.72
2018-07-28T16:50:20.325Z,6.92
2018-07-28T16:52:24.346Z,7.08
2018-07-28T16:54:32.167Z,6.53
2018-07-28T16:56:41.393Z,6.75
2018-07-28T16:58:50.992Z,6.85
2018-07-28T17:00:56.048Z,6.58
2018-07-28T17:03:00.238Z,6.80
2018-07-28T17:05:05.051Z,6.37
2018-07-28T17:07:10.590Z,5.85
2018-07-28T17:09:15.738Z,5.72
2018-07-28T17:11:23.938Z,5.85
2018-07-28T17:13:34.667Z,5.70
2018-07-28T17:15:42.581Z,5.30
2018-07-28T17:17:48.410Z,6.08
2018-07-28T17:19:53.709Z,5.92
2018-07-28T17:22:00.320Z,6.47
2018-07-28T17:24:07.029Z,5.60
2018-07-28T17:26:12.248Z,5.67
2018-07-28T17:28:18.370Z,5.78
2018-07-28T17:30:35.055Z,5.75
2018-07-28T17:32:46.464Z,5.87
2018-07-28T17:34:54.419Z,6.17
2018-07-28T17:37:04.758Z,5.58
2018-07-28T17:39:11.934Z,5.33
2018-07-28T17:42:22.368Z,5.08
2018-07-28T17:44:27.332Z,5.42
2018-07-28T17:46:32.401Z,5.50
2018-07-28T17:48:37.862Z,4.85
2018-07-28T17:50:50.825Z,5.37
2018-07-28T17:52:57.994Z,5.72
2018-07-28T17:55:04.917Z,5.87
2018-07-28T17:57:12.399Z,5.50
2018-07-28T17:59:17.151Z,5.37
2018-07-28T18:01:22.795Z,5.33
2018-07-28T18:03:28.817Z,5.40
2018-07-28T18:05:33.036Z,5.20
2018-07-28T18:07:38.952Z,5.40
2018-07-28T18:09:43.311Z,4.97
2018-07-28T18:11:48.011Z,4.83
2018-07-28T18:13:53.988Z,4.72
2018-07-28T18:16:00.332Z,5.08
2018-07-28T18:18:04.446Z,5.05
2018-07-28T18:20:10.624Z,5.10
2018-07-28T18:22:17.247Z,4.75
2018-07-28T18:24:21.213Z,4.45
2018-07-28T18:26:25.319Z,4.30
2018-07-28T18:28:31.714Z,4.33
2018-07-28T18:30:36.704Z,4.50
2018-07-28T18:32:42.503Z,4.37
2018-07-28T18:34:48.313Z,4.78
2018-07-28T18:36:52.380Z,4.37
2018-07-28T18:38:56.518Z,4.45
2018-07-28T18:41:02.466Z,4.50
2018-07-28T18:43:09.324Z,4.20
2018-07-28T18:45:15.083Z,4.80
2018-07-28T18:47:22.990Z,4.20
2018-07-28T18:49:28.484Z,4.70
2018-07-28T18:51:38.426Z,4.47
2018-07-28T18:53:44.755Z,4.35
2018-07-28T18:55:51.104Z,4.78
2018-07-28T18:57:55.988Z,4.37
2018-07-28T19:00:01.389Z,4.50
2018-07-28T19:02:06.787Z,4.12
2018-07-28T19:04:10.885Z,4.35
2018-07-28T19:06:15.936Z,4.10
2018-07-28T19:08:21.612Z,4.37
2018-07-28T19:10:29.311Z,4.35
2018-07-28T19:12:40.138Z,4.17
2018-07-28T19:14:46.489Z,4.43
2018-07-28T19:16:53.488Z,3.80
2018-07-28T19:19:07.103Z,4.00
2018-07-28T19:21:11.592Z,3.92
2018-07-28T19:23:21.677Z,3.92
2018-07-28T19:25:26.342Z,3.62
2018-07-28T19:27:30.441Z,3.98
2018-07-28T19:29:39.729Z,3.97
2018-07-28T19:31:45.440Z,4.23
2018-07-28T19:33:50.476Z,4.50
2018-07-28T19:36:04.157Z,4.20
2018-07-28T19:38:09.394Z,4.35
2018-07-28T19:40:16.993Z,4.33
2018-07-28T19:42:30.890Z,4.50
2018-07-28T19:44:39.056Z,4.73
2018-07-28T19:46:43.766Z,4.40
2018-07-28T19:48:51.678Z,4.47
2018-07-28T19:51:07.586Z,4.35
2018-07-28T19:53:12.494Z,4.13
2018-07-28T19:55:17.369Z,4.73
2018-07-28T19:57:22.541Z,4.60
2018-07-28T19:59:27.921Z,4.63
2018-07-28T20:01:34.707Z,4.50
2018-07-28T20:03:38.907Z,4.60
2018-07-28T20:05:43.148Z,3.97
2018-07-28T20:08:06.233Z,4.20
2018-07-28T20:10:10.312Z,3.93
2018-07-28T20:12:20.481Z,4.25
2018-07-28T20:14:25.953Z,4.23
2018-07-28T20:16:36.659Z,4.00
2018-07-28T20:18:44.295Z,4.17
2018-07-28T20:23:29.520Z,4.23
2018-07-28T20:25:34.628Z,4.40
2018-07-28T20:27:43.370Z,4.00
2018-07-28T20:29:48.439Z,4.03
2018-07-28T20:31:52.172Z,3.93
2018-07-28T20:34:00.012Z,3.93
2018-07-28T20:36:07.315Z,3.80
2018-07-28T20:38:12.290Z,4.53
2018-07-28T20:40:18.793Z,4.47
2018-07-28T20:42:24.190Z,4.00
2018-07-28T20:44:31.252Z,4.40
2018-07-28T20:46:39.173Z,4.67
2018-07-28T20:48:44.331Z,4.20
2018-07-28T20:50:49.083Z,4.53
2018-07-28T20:52:54.464Z,4.80
2018-07-28T20:57:12.499Z,4.70
